KTVI/TVI METAR and TAF weather

Enter ICAO airport designator
Station Type Date Time Source
KTVI METAR 2021/07/26 12:35 UTC NOAA

KTVI 261235Z AUTO 00000KT 10SM CLR 23/22 A3001 RMK AO2


Station Type Date Time Source
KTVI Decoded METAR 2021/07/26 12:35 UTC NOAA

Thomasville, GA, United States (KTVI) 30-54-06N 083-52-53W
Jul 26, 2021 - 08:35 AM EDT / 2021.07.26 1235 UTC
Wind: Calm:0
Visibility: 10 mile(s):0
Sky conditions: clear
Temperature: 73 F (23 C)
Dew Point: 71 F (22 C)
Relative Humidity: 94%
Pressure (altimeter): 30.01 in. Hg (1016 hPa)
ob: KTVI 261235Z AUTO 00000KT 10SM CLR 23/22 A3001 RMK AO2
cycle: 12

Station Type Date Time Source
KTVI TAF UTC NOAA

Error!

Example: see airport list